sensor_id;sensor_type;location;lat;lon;timestamp;P1;durP1;ratioP1;P2;durP2;ratioP2
19560;SDS011;9927;47.792;10.616;2023-02-27T04:02:50;10.97;;;9.50;;
19560;SDS011;9927;47.792;10.616;2023-02-27T04:05:20;10.20;;;9.13;;
19560;SDS011;9927;47.792;10.616;2023-02-27T04:13:47;25.83;;;11.53;;
19560;SDS011;9927;47.792;10.616;2023-02-27T04:22:08;10.20;;;9.03;;
19560;SDS011;9927;47.792;10.616;2023-02-27T04:30:27;10.17;;;9.17;;
19560;SDS011;9927;47.792;10.616;2023-02-27T04:35:48;12.27;;;9.70;;
19560;SDS011;9927;47.792;10.616;2023-02-27T04:40:58;10.83;;;8.73;;
19560;SDS011;9927;47.792;10.616;2023-02-27T04:43:38;10.27;;;9.27;;
19560;SDS011;9927;47.792;10.616;2023-02-27T04:46:07;11.03;;;9.97;;
19560;SDS011;9927;47.792;10.616;2023-02-27T04:48:40;10.30;;;9.20;;
19560;SDS011;9927;47.792;10.616;2023-02-27T04:51:21;15.03;;;10.00;;
19560;SDS011;9927;47.792;10.616;2023-02-27T04:53:59;11.93;;;10.00;;
19560;SDS011;9927;47.792;10.616;2023-02-27T04:56:34;11.53;;;9.73;;
19560;SDS011;9927;47.792;10.616;2023-02-27T04:59:24;12.00;;;10.63;;
19560;SDS011;9927;47.792;10.616;2023-02-27T05:01:57;10.83;;;9.73;;
19560;SDS011;9927;47.792;10.616;2023-02-27T05:04:29;10.30;;;9.33;;
19560;SDS011;9927;47.792;10.616;2023-02-27T05:07:00;12.87;;;10.60;;
19560;SDS011;9927;47.792;10.616;2023-02-27T05:09:37;10.97;;;9.87;;
19560;SDS011;9927;47.792;10.616;2023-02-27T05:12:11;10.67;;;9.47;;
19560;SDS011;9927;47.792;10.616;2023-02-27T05:15:08;11.40;;;10.07;;
19560;SDS011;9927;47.792;10.616;2023-02-27T05:17:43;10.07;;;9.27;;
19560;SDS011;9927;47.792;10.616;2023-02-27T05:20:13;10.73;;;9.50;;
19560;SDS011;9927;47.792;10.616;2023-02-27T05:22:46;11.33;;;9.83;;
19560;SDS011;9927;47.792;10.616;2023-02-27T05:26:00;11.93;;;10.03;;
19560;SDS011;9927;47.792;10.616;2023-02-27T05:28:25;11.60;;;9.90;;
19560;SDS011;9927;47.792;10.616;2023-02-27T05:31:14;10.60;;;9.50;;
19560;SDS011;9927;47.792;10.616;2023-02-27T05:33:46;11.50;;;10.30;;
19560;SDS011;9927;47.792;10.616;2023-02-27T05:36:42;10.77;;;9.70;;
19560;SDS011;9927;47.792;10.616;2023-02-27T05:39:16;11.53;;;9.87;;
19560;SDS011;9927;47.792;10.616;2023-02-27T05:41:51;10.07;;;9.07;;
19560;SDS011;9927;47.792;10.616;2023-02-27T05:44:27;11.07;;;9.43;;
19560;SDS011;9927;47.792;10.616;2023-02-27T05:46:58;11.43;;;9.53;;
19560;SDS011;9927;47.792;10.616;2023-02-27T05:49:30;10.40;;;9.47;;
19560;SDS011;9927;47.792;10.616;2023-02-27T05:52:02;10.97;;;9.87;;
19560;SDS011;9927;47.792;10.616;2023-02-27T05:57:29;11.47;;;9.83;;
19560;SDS011;9927;47.792;10.616;2023-02-27T06:00:14;13.73;;;10.43;;
19560;SDS011;9927;47.792;10.616;2023-02-27T06:02:44;13.93;;;10.40;;
19560;SDS011;9927;47.792;10.616;2023-02-27T06:05:15;14.10;;;10.93;;
19560;SDS011;9927;47.792;10.616;2023-02-27T06:07:44;10.70;;;9.40;;
19560;SDS011;9927;47.792;10.616;2023-02-27T06:10:15;10.10;;;9.10;;
19560;SDS011;9927;47.792;10.616;2023-02-27T06:12:45;11.07;;;9.90;;
19560;SDS011;9927;47.792;10.616;2023-02-27T06:15:12;10.67;;;9.57;;
19560;SDS011;9927;47.792;10.616;2023-02-27T06:17:39;11.23;;;9.67;;
19560;SDS011;9927;47.792;10.616;2023-02-27T06:20:07;11.30;;;10.10;;
19560;SDS011;9927;47.792;10.616;2023-02-27T06:22:35;11.33;;;10.13;;
19560;SDS011;9927;47.792;10.616;2023-02-27T06:25:02;13.07;;;9.53;;
19560;SDS011;9927;47.792;10.616;2023-02-27T06:27:29;10.13;;;9.13;;
19560;SDS011;9927;47.792;10.616;2023-02-27T06:29:57;11.80;;;10.10;;
19560;SDS011;9927;47.792;10.616;2023-02-27T06:32:24;10.50;;;9.43;;
19560;SDS011;9927;47.792;10.616;2023-02-27T06:34:51;14.17;;;9.80;;
19560;SDS011;9927;47.792;10.616;2023-02-27T06:37:19;11.57;;;9.90;;
19560;SDS011;9927;47.792;10.616;2023-02-27T06:39:47;11.27;;;10.07;;
19560;SDS011;9927;47.792;10.616;2023-02-27T06:42:15;10.43;;;9.33;;
19560;SDS011;9927;47.792;10.616;2023-02-27T06:44:42;10.83;;;9.70;;
19560;SDS011;9927;47.792;10.616;2023-02-27T06:47:09;9.67;;;8.83;;
19560;SDS011;9927;47.792;10.616;2023-02-27T06:49:37;11.90;;;9.83;;
19560;SDS011;9927;47.792;10.616;2023-02-27T06:52:04;11.93;;;10.30;;
19560;SDS011;9927;47.792;10.616;2023-02-27T06:54:31;20.27;;;13.73;;
19560;SDS011;9927;47.792;10.616;2023-02-27T06:56:59;11.37;;;10.20;;
19560;SDS011;9927;47.792;10.616;2023-02-27T06:59:26;13.07;;;11.03;;
19560;SDS011;9927;47.792;10.616;2023-02-27T07:01:53;10.67;;;9.57;;
19560;SDS011;9927;47.792;10.616;2023-02-27T07:04:21;13.03;;;10.17;;
19560;SDS011;9927;47.792;10.616;2023-02-27T07:06:48;15.10;;;11.03;;
19560;SDS011;9927;47.792;10.616;2023-02-27T07:09:35;14.40;;;10.97;;
19560;SDS011;9927;47.792;10.616;2023-02-27T07:12:03;12.17;;;10.87;;
19560;SDS011;9927;47.792;10.616;2023-02-27T07:14:31;15.33;;;11.40;;
19560;SDS011;9927;47.792;10.616;2023-02-27T07:16:58;14.53;;;10.93;;
19560;SDS011;9927;47.792;10.616;2023-02-27T07:19:30;12.40;;;10.93;;
19560;SDS011;9927;47.792;10.616;2023-02-27T07:21:59;10.83;;;9.83;;
19560;SDS011;9927;47.792;10.616;2023-02-27T07:24:26;13.03;;;10.93;;
19560;SDS011;9927;47.792;10.616;2023-02-27T07:26:53;12.97;;;10.90;;
19560;SDS011;9927;47.792;10.616;2023-02-27T07:29:20;12.33;;;10.43;;
19560;SDS011;9927;47.792;10.616;2023-02-27T07:31:48;13.37;;;10.73;;
19560;SDS011;9927;47.792;10.616;2023-02-27T07:34:15;12.60;;;10.63;;
19560;SDS011;9927;47.792;10.616;2023-02-27T07:36:42;13.43;;;11.37;;
19560;SDS011;9927;47.792;10.616;2023-02-27T07:39:12;12.87;;;10.20;;
19560;SDS011;9927;47.792;10.616;2023-02-27T07:41:40;11.23;;;10.13;;
19560;SDS011;9927;47.792;10.616;2023-02-27T07:44:07;12.63;;;11.13;;
19560;SDS011;9927;47.792;10.616;2023-02-27T07:46:34;12.70;;;10.90;;
19560;SDS011;9927;47.792;10.616;2023-02-27T07:49:02;11.17;;;10.07;;
19560;SDS011;9927;47.792;10.616;2023-02-27T07:51:29;14.77;;;11.27;;
19560;SDS011;9927;47.792;10.616;2023-02-27T07:53:57;11.83;;;10.60;;
19560;SDS011;9927;47.792;10.616;2023-02-27T07:56:25;11.70;;;10.47;;
19560;SDS011;9927;47.792;10.616;2023-02-27T07:58:53;11.70;;;10.50;;
19560;SDS011;9927;47.792;10.616;2023-02-27T08:01:20;11.57;;;10.37;;
19560;SDS011;9927;47.792;10.616;2023-02-27T08:03:48;10.97;;;9.87;;
19560;SDS011;9927;47.792;10.616;2023-02-27T08:06:15;11.33;;;10.17;;
19560;SDS011;9927;47.792;10.616;2023-02-27T08:08:42;11.80;;;10.47;;
19560;SDS011;9927;47.792;10.616;2023-02-27T08:11:09;11.03;;;9.90;;
19560;SDS011;9927;47.792;10.616;2023-02-27T08:13:37;12.37;;;10.57;;
19560;SDS011;9927;47.792;10.616;2023-02-27T08:16:24;14.00;;;10.07;;
19560;SDS011;9927;47.792;10.616;2023-02-27T08:18:52;11.20;;;10.00;;
19560;SDS011;9927;47.792;10.616;2023-02-27T08:21:19;10.87;;;9.80;;
19560;SDS011;9927;47.792;10.616;2023-02-27T08:23:46;11.90;;;9.93;;
19560;SDS011;9927;47.792;10.616;2023-02-27T08:26:13;12.17;;;9.83;;
19560;SDS011;9927;47.792;10.616;2023-02-27T08:28:41;12.47;;;10.47;;
19560;SDS011;9927;47.792;10.616;2023-02-27T08:31:08;12.07;;;10.10;;
19560;SDS011;9927;47.792;10.616;2023-02-27T08:33:36;11.43;;;10.23;;
19560;SDS011;9927;47.792;10.616;2023-02-27T08:36:03;12.20;;;9.73;;
19560;SDS011;9927;47.792;10.616;2023-02-27T08:38:31;11.10;;;10.00;;
19560;SDS011;9927;47.792;10.616;2023-02-27T08:40:58;11.17;;;9.97;;
19560;SDS011;9927;47.792;10.616;2023-02-27T08:43:25;11.00;;;9.83;;
19560;SDS011;9927;47.792;10.616;2023-02-27T08:45:53;11.17;;;10.07;;
19560;SDS011;9927;47.792;10.616;2023-02-27T08:48:20;11.60;;;9.80;;
19560;SDS011;9927;47.792;10.616;2023-02-27T08:50:50;11.50;;;10.27;;
19560;SDS011;9927;47.792;10.616;2023-02-27T08:53:17;13.27;;;9.87;;
19560;SDS011;9927;47.792;10.616;2023-02-27T08:55:48;11.33;;;10.13;;
19560;SDS011;9927;47.792;10.616;2023-02-27T08:58:17;11.00;;;9.80;;
19560;SDS011;9927;47.792;10.616;2023-02-27T09:00:44;9.73;;;8.83;;
19560;SDS011;9927;47.792;10.616;2023-02-27T09:03:12;10.97;;;9.50;;
19560;SDS011;9927;47.792;10.616;2023-02-27T09:05:40;10.00;;;9.00;;
19560;SDS011;9927;47.792;10.616;2023-02-27T09:08:08;9.97;;;9.00;;
19560;SDS011;9927;47.792;10.616;2023-02-27T09:10:35;11.77;;;9.70;;
19560;SDS011;9927;47.792;10.616;2023-02-27T09:13:02;12.13;;;9.77;;
19560;SDS011;9927;47.792;10.616;2023-02-27T09:15:30;11.30;;;10.03;;
19560;SDS011;9927;47.792;10.616;2023-02-27T09:18:00;10.83;;;9.73;;
19560;SDS011;9927;47.792;10.616;2023-02-27T09:20:29;9.97;;;8.97;;
19560;SDS011;9927;47.792;10.616;2023-02-27T09:22:57;10.40;;;9.40;;
19560;SDS011;9927;47.792;10.616;2023-02-27T09:25:25;11.40;;;10.33;;
19560;SDS011;9927;47.792;10.616;2023-02-27T09:27:53;11.30;;;9.53;;
19560;SDS011;9927;47.792;10.616;2023-02-27T09:30:21;11.20;;;10.10;;
19560;SDS011;9927;47.792;10.616;2023-02-27T09:32:49;11.33;;;10.10;;
19560;SDS011;9927;47.792;10.616;2023-02-27T09:35:16;10.97;;;9.83;;
19560;SDS011;9927;47.792;10.616;2023-02-27T09:37:46;10.83;;;9.73;;
19560;SDS011;9927;47.792;10.616;2023-02-27T09:40:25;10.80;;;9.67;;
19560;SDS011;9927;47.792;10.616;2023-02-27T09:42:59;11.20;;;9.43;;
19560;SDS011;9927;47.792;10.616;2023-02-27T09:45:30;10.97;;;9.67;;
19560;SDS011;9927;47.792;10.616;2023-02-27T09:48:07;9.90;;;9.07;;
19560;SDS011;9927;47.792;10.616;2023-02-27T09:50:54;9.17;;;8.37;;
19560;SDS011;9927;47.792;10.616;2023-02-27T09:53:24;12.23;;;9.70;;
19560;SDS011;9927;47.792;10.616;2023-02-27T09:56:02;10.53;;;9.53;;
19560;SDS011;9927;47.792;10.616;2023-02-27T09:58:41;10.30;;;9.40;;
19560;SDS011;9927;47.792;10.616;2023-02-27T10:02:03;10.77;;;9.67;;
19560;SDS011;9927;47.792;10.616;2023-02-27T10:04:29;10.60;;;9.60;;
19560;SDS011;9927;47.792;10.616;2023-02-27T10:07:11;12.13;;;9.87;;
19560;SDS011;9927;47.792;10.616;2023-02-27T10:12:37;10.93;;;9.83;;
19560;SDS011;9927;47.792;10.616;2023-02-27T10:15:34;11.13;;;9.87;;
19560;SDS011;9927;47.792;10.616;2023-02-27T10:18:16;15.03;;;11.33;;
19560;SDS011;9927;47.792;10.616;2023-02-27T10:21:09;14.20;;;12.03;;
19560;SDS011;9927;47.792;10.616;2023-02-27T10:26:49;10.27;;;9.27;;
19560;SDS011;9927;47.792;10.616;2023-02-27T10:32:13;10.67;;;9.70;;
19560;SDS011;9927;47.792;10.616;2023-02-27T10:35:08;10.23;;;9.20;;
19560;SDS011;9927;47.792;10.616;2023-02-27T10:37:50;10.10;;;9.20;;
19560;SDS011;9927;47.792;10.616;2023-02-27T10:40:20;11.27;;;10.17;;
19560;SDS011;9927;47.792;10.616;2023-02-27T10:42:50;15.33;;;12.43;;
19560;SDS011;9927;47.792;10.616;2023-02-27T10:45:19;10.43;;;9.30;;
19560;SDS011;9927;47.792;10.616;2023-02-27T10:47:46;11.67;;;9.63;;
19560;SDS011;9927;47.792;10.616;2023-02-27T10:52:49;13.73;;;11.80;;
19560;SDS011;9927;47.792;10.616;2023-02-27T10:55:18;10.13;;;9.23;;
19560;SDS011;9927;47.792;10.616;2023-02-27T10:57:48;10.40;;;9.30;;
19560;SDS011;9927;47.792;10.616;2023-02-27T11:03:03;11.73;;;9.27;;
19560;SDS011;9927;47.792;10.616;2023-02-27T11:05:35;9.73;;;8.90;;
19560;SDS011;9927;47.792;10.616;2023-02-27T11:08:12;9.77;;;8.87;;
19560;SDS011;9927;47.792;10.616;2023-02-27T11:11:02;9.77;;;8.87;;
19560;SDS011;9927;47.792;10.616;2023-02-27T11:13:41;10.70;;;9.60;;
19560;SDS011;9927;47.792;10.616;2023-02-27T11:16:13;9.43;;;8.53;;
19560;SDS011;9927;47.792;10.616;2023-02-27T11:18:48;9.73;;;8.87;;
19560;SDS011;9927;47.792;10.616;2023-02-27T11:26:27;10.87;;;9.77;;
19560;SDS011;9927;47.792;10.616;2023-02-27T11:31:37;9.47;;;8.70;;
19560;SDS011;9927;47.792;10.616;2023-02-27T11:34:05;10.27;;;8.83;;
19560;SDS011;9927;47.792;10.616;2023-02-27T11:36:41;10.20;;;9.10;;
19560;SDS011;9927;47.792;10.616;2023-02-27T11:42:34;10.13;;;9.10;;
19560;SDS011;9927;47.792;10.616;2023-02-27T11:45:05;9.50;;;8.70;;
19560;SDS011;9927;47.792;10.616;2023-02-27T11:48:08;9.40;;;8.50;;
19560;SDS011;9927;47.792;10.616;2023-02-27T11:56:37;10.43;;;9.37;;
19560;SDS011;9927;47.792;10.616;2023-02-27T12:02:04;12.13;;;9.93;;
19560;SDS011;9927;47.792;10.616;2023-02-27T12:08:02;9.93;;;8.93;;
19560;SDS011;9927;47.792;10.616;2023-02-27T12:10:35;11.17;;;9.30;;
19560;SDS011;9927;47.792;10.616;2023-02-27T12:13:32;10.00;;;9.00;;
19560;SDS011;9927;47.792;10.616;2023-02-27T12:21:29;11.13;;;10.03;;
19560;SDS011;9927;47.792;10.616;2023-02-27T12:26:42;9.80;;;8.90;;
19560;SDS011;9927;47.792;10.616;2023-02-27T12:29:21;9.50;;;8.50;;
19560;SDS011;9927;47.792;10.616;2023-02-27T12:34:52;10.30;;;9.30;;
19560;SDS011;9927;47.792;10.616;2023-02-27T12:37:27;13.03;;;9.43;;
19560;SDS011;9927;47.792;10.616;2023-02-27T12:39:59;11.07;;;9.50;;
19560;SDS011;9927;47.792;10.616;2023-02-27T12:42:30;9.83;;;8.87;;
19560;SDS011;9927;47.792;10.616;2023-02-27T12:45:23;9.90;;;9.00;;
19560;SDS011;9927;47.792;10.616;2023-02-27T12:51:35;10.03;;;9.13;;
19560;SDS011;9927;47.792;10.616;2023-02-27T12:56:20;11.90;;;9.33;;
19560;SDS011;9927;47.792;10.616;2023-02-27T13:07:30;9.83;;;8.93;;
19560;SDS011;9927;47.792;10.616;2023-02-27T13:10:14;10.67;;;9.40;;
19560;SDS011;9927;47.792;10.616;2023-02-27T13:12:53;9.87;;;8.47;;
19560;SDS011;9927;47.792;10.616;2023-02-27T13:16:03;10.00;;;9.00;;
19560;SDS011;9927;47.792;10.616;2023-02-27T13:21:12;12.43;;;8.90;;
19560;SDS011;9927;47.792;10.616;2023-02-27T13:24:02;10.40;;;9.50;;
19560;SDS011;9927;47.792;10.616;2023-02-27T13:29:39;10.20;;;9.20;;
19560;SDS011;9927;47.792;10.616;2023-02-27T13:35:28;9.80;;;8.80;;
19560;SDS011;9927;47.792;10.616;2023-02-27T13:46:47;12.30;;;9.67;;
19560;SDS011;9927;47.792;10.616;2023-02-27T13:51:55;8.20;;;7.47;;
19560;SDS011;9927;47.792;10.616;2023-02-27T13:54:32;9.10;;;8.20;;
19560;SDS011;9927;47.792;10.616;2023-02-27T13:57:21;10.57;;;8.57;;
19560;SDS011;9927;47.792;10.616;2023-02-27T13:59:51;18.33;;;10.70;;
19560;SDS011;9927;47.792;10.616;2023-02-27T14:05:47;8.57;;;7.77;;
19560;SDS011;9927;47.792;10.616;2023-02-27T14:08:15;9.90;;;8.87;;
19560;SDS011;9927;47.792;10.616;2023-02-27T14:10:56;12.60;;;9.50;;
19560;SDS011;9927;47.792;10.616;2023-02-27T14:17:02;9.20;;;8.40;;
19560;SDS011;9927;47.792;10.616;2023-02-27T14:24:33;10.53;;;9.00;;
19560;SDS011;9927;47.792;10.616;2023-02-27T14:27:46;9.00;;;8.20;;
19560;SDS011;9927;47.792;10.616;2023-02-27T14:35:57;11.63;;;9.60;;
19560;SDS011;9927;47.792;10.616;2023-02-27T14:38:26;11.03;;;9.93;;
19560;SDS011;9927;47.792;10.616;2023-02-27T14:43:42;9.07;;;8.27;;
19560;SDS011;9927;47.792;10.616;2023-02-27T14:46:15;9.37;;;8.43;;
19560;SDS011;9927;47.792;10.616;2023-02-27T14:48:56;9.97;;;8.53;;
19560;SDS011;9927;47.792;10.616;2023-02-27T14:51:25;9.87;;;8.87;;
19560;SDS011;9927;47.792;10.616;2023-02-27T14:53:57;9.00;;;8.10;;
19560;SDS011;9927;47.792;10.616;2023-02-27T14:56:39;10.63;;;9.70;;
19560;SDS011;9927;47.792;10.616;2023-02-27T14:59:19;9.97;;;8.53;;
19560;SDS011;9927;47.792;10.616;2023-02-27T15:01:48;9.70;;;8.73;;
19560;SDS011;9927;47.792;10.616;2023-02-27T15:04:16;9.50;;;8.60;;
19560;SDS011;9927;47.792;10.616;2023-02-27T15:06:46;15.73;;;8.60;;
19560;SDS011;9927;47.792;10.616;2023-02-27T15:09:37;9.50;;;8.60;;
19560;SDS011;9927;47.792;10.616;2023-02-27T15:12:09;12.13;;;10.80;;
19560;SDS011;9927;47.792;10.616;2023-02-27T15:14:45;11.33;;;8.67;;
19560;SDS011;9927;47.792;10.616;2023-02-27T15:17:17;16.37;;;9.50;;
19560;SDS011;9927;47.792;10.616;2023-02-27T15:19:47;14.63;;;10.63;;
19560;SDS011;9927;47.792;10.616;2023-02-27T15:22:21;9.47;;;8.57;;
19560;SDS011;9927;47.792;10.616;2023-02-27T15:25:04;9.73;;;8.83;;
19560;SDS011;9927;47.792;10.616;2023-02-27T15:27:33;9.27;;;8.37;;
19560;SDS011;9927;47.792;10.616;2023-02-27T15:30:03;9.03;;;8.13;;
19560;SDS011;9927;47.792;10.616;2023-02-27T15:32:34;10.33;;;8.70;;
19560;SDS011;9927;47.792;10.616;2023-02-27T15:35:04;8.97;;;8.07;;
19560;SDS011;9927;47.792;10.616;2023-02-27T15:37:55;12.20;;;9.07;;
19560;SDS011;9927;47.792;10.616;2023-02-27T15:40:27;10.43;;;8.67;;
19560;SDS011;9927;47.792;10.616;2023-02-27T15:42:56;11.80;;;10.07;;
19560;SDS011;9927;47.792;10.616;2023-02-27T15:45:27;13.00;;;9.43;;
19560;SDS011;9927;47.792;10.616;2023-02-27T15:47:57;10.03;;;8.73;;
19560;SDS011;9927;47.792;10.616;2023-02-27T15:50:26;9.57;;;8.67;;
19560;SDS011;9927;47.792;10.616;2023-02-27T15:53:04;9.83;;;8.90;;
19560;SDS011;9927;47.792;10.616;2023-02-27T15:55:48;9.40;;;8.50;;
19560;SDS011;9927;47.792;10.616;2023-02-27T15:58:22;9.90;;;9.00;;
19560;SDS011;9927;47.792;10.616;2023-02-27T16:03:32;11.83;;;9.47;;
19560;SDS011;9927;47.792;10.616;2023-02-27T16:06:09;9.70;;;8.67;;
19560;SDS011;9927;47.792;10.616;2023-02-27T16:08:45;12.47;;;9.93;;
19560;SDS011;9927;47.792;10.616;2023-02-27T16:11:18;10.37;;;8.70;;
19560;SDS011;9927;47.792;10.616;2023-02-27T16:13:46;11.77;;;9.97;;
19560;SDS011;9927;47.792;10.616;2023-02-27T16:18:48;13.00;;;10.23;;
19560;SDS011;9927;47.792;10.616;2023-02-27T16:21:24;10.07;;;9.07;;
19560;SDS011;9927;47.792;10.616;2023-02-27T16:23:52;10.57;;;9.47;;
19560;SDS011;9927;47.792;10.616;2023-02-27T16:29:16;10.00;;;9.00;;
19560;SDS011;9927;47.792;10.616;2023-02-27T16:31:52;13.80;;;10.27;;
19560;SDS011;9927;47.792;10.616;2023-02-27T16:34:23;14.37;;;9.40;;
19560;SDS011;9927;47.792;10.616;2023-02-27T16:37:25;11.73;;;8.53;;
19560;SDS011;9927;47.792;10.616;2023-02-27T16:40:00;10.13;;;8.80;;
19560;SDS011;9927;47.792;10.616;2023-02-27T16:42:32;9.87;;;8.87;;
19560;SDS011;9927;47.792;10.616;2023-02-27T16:45:00;16.80;;;9.30;;
19560;SDS011;9927;47.792;10.616;2023-02-27T16:47:27;9.10;;;8.40;;
19560;SDS011;9927;47.792;10.616;2023-02-27T16:49:55;12.23;;;9.93;;
19560;SDS011;9927;47.792;10.616;2023-02-27T16:52:22;11.17;;;9.77;;
19560;SDS011;9927;47.792;10.616;2023-02-27T16:54:49;14.07;;;9.93;;
19560;SDS011;9927;47.792;10.616;2023-02-27T16:57:16;12.20;;;9.67;;
19560;SDS011;9927;47.792;10.616;2023-02-27T16:59:43;11.43;;;10.20;;
19560;SDS011;9927;47.792;10.616;2023-02-27T17:02:12;10.30;;;9.27;;
19560;SDS011;9927;47.792;10.616;2023-02-27T17:04:40;11.13;;;9.97;;
19560;SDS011;9927;47.792;10.616;2023-02-27T17:07:14;13.37;;;10.17;;
19560;SDS011;9927;47.792;10.616;2023-02-27T17:09:43;11.73;;;10.53;;
19560;SDS011;9927;47.792;10.616;2023-02-27T17:12:11;12.47;;;10.00;;
19560;SDS011;9927;47.792;10.616;2023-02-27T17:14:39;11.43;;;9.87;;
19560;SDS011;9927;47.792;10.616;2023-02-27T17:17:06;15.73;;;11.43;;
19560;SDS011;9927;47.792;10.616;2023-02-27T17:19:36;13.77;;;11.60;;
19560;SDS011;9927;47.792;10.616;2023-02-27T17:22:03;12.43;;;9.60;;
19560;SDS011;9927;47.792;10.616;2023-02-27T17:24:31;10.87;;;9.77;;
19560;SDS011;9927;47.792;10.616;2023-02-27T17:26:58;14.43;;;10.40;;
19560;SDS011;9927;47.792;10.616;2023-02-27T17:29:25;12.13;;;10.50;;
19560;SDS011;9927;47.792;10.616;2023-02-27T17:31:52;13.13;;;9.97;;
19560;SDS011;9927;47.792;10.616;2023-02-27T17:34:20;11.57;;;10.00;;
19560;SDS011;9927;47.792;10.616;2023-02-27T17:36:47;12.50;;;10.17;;
19560;SDS011;9927;47.792;10.616;2023-02-27T17:39:15;12.60;;;11.07;;
19560;SDS011;9927;47.792;10.616;2023-02-27T17:41:42;13.03;;;10.53;;
19560;SDS011;9927;47.792;10.616;2023-02-27T17:44:10;11.70;;;10.47;;
19560;SDS011;9927;47.792;10.616;2023-02-27T17:46:38;19.33;;;12.43;;
19560;SDS011;9927;47.792;10.616;2023-02-27T17:49:06;25.10;;;14.63;;
19560;SDS011;9927;47.792;10.616;2023-02-27T17:51:33;19.77;;;14.07;;
19560;SDS011;9927;47.792;10.616;2023-02-27T17:54:04;14.37;;;10.80;;
19560;SDS011;9927;47.792;10.616;2023-02-27T17:56:32;17.17;;;13.00;;
19560;SDS011;9927;47.792;10.616;2023-02-27T17:59:02;13.00;;;10.70;;
19560;SDS011;9927;47.792;10.616;2023-02-27T18:01:30;16.43;;;12.50;;
19560;SDS011;9927;47.792;10.616;2023-02-27T18:03:57;18.17;;;13.53;;
19560;SDS011;9927;47.792;10.616;2023-02-27T18:06:25;17.40;;;12.07;;
19560;SDS011;9927;47.792;10.616;2023-02-27T18:08:52;17.03;;;13.33;;
19560;SDS011;9927;47.792;10.616;2023-02-27T18:11:20;12.53;;;10.30;;
19560;SDS011;9927;47.792;10.616;2023-02-27T18:13:48;13.00;;;10.87;;
19560;SDS011;9927;47.792;10.616;2023-02-27T18:16:17;10.20;;;9.20;;
19560;SDS011;9927;47.792;10.616;2023-02-27T18:18:44;11.67;;;10.13;;
19560;SDS011;9927;47.792;10.616;2023-02-27T18:21:15;11.30;;;10.17;;
19560;SDS011;9927;47.792;10.616;2023-02-27T18:23:49;11.20;;;10.00;;
19560;SDS011;9927;47.792;10.616;2023-02-27T18:26:18;11.83;;;9.97;;
19560;SDS011;9927;47.792;10.616;2023-02-27T18:28:59;10.03;;;9.03;;
19560;SDS011;9927;47.792;10.616;2023-02-27T18:31:37;10.30;;;9.03;;
19560;SDS011;9927;47.792;10.616;2023-02-27T18:34:06;12.10;;;10.50;;
19560;SDS011;9927;47.792;10.616;2023-02-27T18:36:34;13.13;;;9.80;;
19560;SDS011;9927;47.792;10.616;2023-02-27T18:39:02;13.67;;;10.70;;
19560;SDS011;9927;47.792;10.616;2023-02-27T18:41:30;11.17;;;9.97;;
19560;SDS011;9927;47.792;10.616;2023-02-27T18:43:58;11.67;;;9.70;;
19560;SDS011;9927;47.792;10.616;2023-02-27T18:46:25;12.43;;;10.67;;
19560;SDS011;9927;47.792;10.616;2023-02-27T18:48:53;11.43;;;10.33;;
19560;SDS011;9927;47.792;10.616;2023-02-27T18:51:21;10.93;;;9.70;;
19560;SDS011;9927;47.792;10.616;2023-02-27T18:53:48;11.47;;;10.17;;
19560;SDS011;9927;47.792;10.616;2023-02-27T18:56:17;11.80;;;10.00;;
19560;SDS011;9927;47.792;10.616;2023-02-27T18:58:48;11.33;;;9.80;;
19560;SDS011;9927;47.792;10.616;2023-02-27T19:01:21;12.13;;;10.87;;
19560;SDS011;9927;47.792;10.616;2023-02-27T19:03:53;11.07;;;9.80;;
19560;SDS011;9927;47.792;10.616;2023-02-27T19:06:26;12.40;;;10.63;;
19560;SDS011;9927;47.792;10.616;2023-02-27T19:08:54;11.40;;;10.33;;
19560;SDS011;9927;47.792;10.616;2023-02-27T19:11:22;12.77;;;9.90;;
19560;SDS011;9927;47.792;10.616;2023-02-27T19:13:51;10.80;;;9.77;;
19560;SDS011;9927;47.792;10.616;2023-02-27T19:16:18;12.47;;;10.13;;
19560;SDS011;9927;47.792;10.616;2023-02-27T19:18:45;10.70;;;9.33;;
19560;SDS011;9927;47.792;10.616;2023-02-27T19:21:13;11.27;;;10.13;;
19560;SDS011;9927;47.792;10.616;2023-02-27T19:23:40;10.90;;;9.90;;
19560;SDS011;9927;47.792;10.616;2023-02-27T19:26:07;10.87;;;9.77;;
19560;SDS011;9927;47.792;10.616;2023-02-27T19:28:34;14.33;;;11.70;;
19560;SDS011;9927;47.792;10.616;2023-02-27T19:31:08;13.17;;;10.83;;
19560;SDS011;9927;47.792;10.616;2023-02-27T19:33:38;11.50;;;10.33;;
19560;SDS011;9927;47.792;10.616;2023-02-27T19:36:07;14.80;;;11.17;;
19560;SDS011;9927;47.792;10.616;2023-02-27T19:38:36;13.03;;;10.73;;
19560;SDS011;9927;47.792;10.616;2023-02-27T19:41:04;14.20;;;10.27;;
19560;SDS011;9927;47.792;10.616;2023-02-27T19:43:37;12.20;;;10.87;;
19560;SDS011;9927;47.792;10.616;2023-02-27T19:46:07;12.00;;;10.37;;
19560;SDS011;9927;47.792;10.616;2023-02-27T19:48:36;14.00;;;10.57;;
19560;SDS011;9927;47.792;10.616;2023-02-27T19:51:05;11.90;;;10.70;;
19560;SDS011;9927;47.792;10.616;2023-02-27T19:53:34;19.10;;;12.80;;
19560;SDS011;9927;47.792;10.616;2023-02-27T19:56:05;12.97;;;11.53;;
19560;SDS011;9927;47.792;10.616;2023-02-27T19:58:34;15.83;;;12.40;;
19560;SDS011;9927;47.792;10.616;2023-02-27T20:01:02;13.50;;;11.00;;
19560;SDS011;9927;47.792;10.616;2023-02-27T20:03:30;17.13;;;12.10;;
19560;SDS011;9927;47.792;10.616;2023-02-27T20:05:58;11.77;;;10.57;;
19560;SDS011;9927;47.792;10.616;2023-02-27T20:08:25;13.43;;;11.20;;
19560;SDS011;9927;47.792;10.616;2023-02-27T20:10:56;11.50;;;10.40;;
19560;SDS011;9927;47.792;10.616;2023-02-27T20:13:25;11.63;;;10.53;;
19560;SDS011;9927;47.792;10.616;2023-02-27T20:15:56;15.23;;;10.93;;
19560;SDS011;9927;47.792;10.616;2023-02-27T20:18:25;13.57;;;11.37;;
19560;SDS011;9927;47.792;10.616;2023-02-27T20:23:29;16.43;;;12.57;;
19560;SDS011;9927;47.792;10.616;2023-02-27T20:25:58;13.50;;;11.63;;
19560;SDS011;9927;47.792;10.616;2023-02-27T20:28:26;13.93;;;11.63;;
19560;SDS011;9927;47.792;10.616;2023-02-27T20:30:57;12.23;;;11.03;;
19560;SDS011;9927;47.792;10.616;2023-02-27T20:33:24;13.70;;;12.00;;
19560;SDS011;9927;47.792;10.616;2023-02-27T20:35:51;15.23;;;11.27;;
19560;SDS011;9927;47.792;10.616;2023-02-27T20:38:19;14.37;;;11.93;;
19560;SDS011;9927;47.792;10.616;2023-02-27T20:40:48;15.87;;;10.70;;
19560;SDS011;9927;47.792;10.616;2023-02-27T20:43:15;13.20;;;11.80;;
19560;SDS011;9927;47.792;10.616;2023-02-27T20:45:42;13.87;;;11.47;;
19560;SDS011;9927;47.792;10.616;2023-02-27T20:48:09;12.27;;;10.93;;
19560;SDS011;9927;47.792;10.616;2023-02-27T20:50:37;33.93;;;12.63;;
19560;SDS011;9927;47.792;10.616;2023-02-27T20:53:04;16.93;;;12.20;;
19560;SDS011;9927;47.792;10.616;2023-02-27T20:55:31;13.67;;;11.47;;
19560;SDS011;9927;47.792;10.616;2023-02-27T20:57:58;15.53;;;12.37;;
19560;SDS011;9927;47.792;10.616;2023-02-27T21:00:26;15.17;;;12.20;;
19560;SDS011;9927;47.792;10.616;2023-02-27T21:02:54;18.20;;;12.20;;
19560;SDS011;9927;47.792;10.616;2023-02-27T21:05:21;15.73;;;12.00;;
19560;SDS011;9927;47.792;10.616;2023-02-27T21:07:48;101.63;;;16.00;;
19560;SDS011;9927;47.792;10.616;2023-02-27T21:10:17;20.80;;;12.43;;
19560;SDS011;9927;47.792;10.616;2023-02-27T21:12:44;21.43;;;12.37;;
19560;SDS011;9927;47.792;10.616;2023-02-27T21:15:11;23.67;;;12.17;;
19560;SDS011;9927;47.792;10.616;2023-02-27T21:17:38;19.67;;;11.80;;
19560;SDS011;9927;47.792;10.616;2023-02-27T21:20:06;24.83;;;12.90;;